createdAt,value
2019-03-13T00:00:43.723Z,9.50
2019-03-13T00:01:43.709Z,5.10
2019-03-13T00:02:43.706Z,4.60
2019-03-13T00:03:43.691Z,4.30
2019-03-13T00:04:43.692Z,5.40
2019-03-13T00:05:43.711Z,7.40
2019-03-13T00:06:43.654Z,5.20
2019-03-13T00:07:43.643Z,6.40
2019-03-13T00:08:43.642Z,4.30
2019-03-13T00:09:43.654Z,5.30
2019-03-13T00:10:43.611Z,3.90
2019-03-13T00:11:43.635Z,9.10
2019-03-13T00:12:43.591Z,6.10
2019-03-13T00:13:43.582Z,4.10
2019-03-13T00:14:43.570Z,6.10
2019-03-13T00:15:43.572Z,4.10
2019-03-13T00:16:43.546Z,6.30
2019-03-13T00:17:43.578Z,6.30
2019-03-13T00:18:43.524Z,6.10
2019-03-13T00:19:43.516Z,5.30
2019-03-13T00:20:43.535Z,5.70
2019-03-13T00:21:43.496Z,5.10
2019-03-13T00:22:43.483Z,4.10
2019-03-13T00:23:43.509Z,5.70
2019-03-13T00:24:43.460Z,3.40
2019-03-13T00:25:43.461Z,5.00
2019-03-13T00:26:43.459Z,6.90
2019-03-13T00:27:43.426Z,8.20
2019-03-13T00:28:43.414Z,7.20
2019-03-13T00:29:43.430Z,7.40
2019-03-13T00:30:43.392Z,5.30
2019-03-13T00:31:43.386Z,4.30
2019-03-13T00:32:43.386Z,5.20
2019-03-13T00:33:43.361Z,4.60
2019-03-13T00:34:43.350Z,5.60
2019-03-13T00:35:43.381Z,7.10
2019-03-13T00:36:43.326Z,5.90
2019-03-13T00:37:43.314Z,4.90
2019-03-13T00:38:43.314Z,7.30
2019-03-13T00:39:43.294Z,7.00
2019-03-13T00:40:43.285Z,5.10
2019-03-13T00:41:43.301Z,5.70
2019-03-13T00:42:43.258Z,5.70
2019-03-13T00:43:43.260Z,5.30
2019-03-13T00:44:43.241Z,6.50
2019-03-13T00:45:43.257Z,8.30
2019-03-13T00:46:43.219Z,5.10
2019-03-13T00:47:43.232Z,5.40
2019-03-13T00:48:43.194Z,8.00
2019-03-13T00:49:43.184Z,4.90
2019-03-13T00:50:43.174Z,7.80
2019-03-13T00:51:43.176Z,7.30
2019-03-13T00:52:43.155Z,4.60
2019-03-13T00:53:43.180Z,7.80
2019-03-13T00:54:43.128Z,6.30
2019-03-13T00:55:43.117Z,7.10
2019-03-13T00:56:43.118Z,10.90
2019-03-13T00:57:43.096Z,7.30
2019-03-13T00:58:43.083Z,6.50
2019-03-13T00:59:43.101Z,6.80
2019-03-13T01:00:43.061Z,3.90
2019-03-13T01:01:43.062Z,5.10
2019-03-13T01:02:43.041Z,6.10
2019-03-13T01:03:43.045Z,11.60
2019-03-13T01:04:43.017Z,4.60
2019-03-13T01:05:43.051Z,5.80
2019-03-13T01:06:42.998Z,7.00
2019-03-13T01:07:42.998Z,8.20
2019-03-13T01:08:42.991Z,9.60
2019-03-13T01:09:42.964Z,6.70
2019-03-13T01:10:42.956Z,6.30
2019-03-13T01:11:42.978Z,7.50
2019-03-13T01:12:42.929Z,4.00
2019-03-13T01:13:42.937Z,3.50
2019-03-13T01:14:42.905Z,6.80
2019-03-13T01:15:42.894Z,7.60
2019-03-13T01:16:42.888Z,8.10
2019-03-13T01:17:42.912Z,5.00
2019-03-13T01:18:42.865Z,7.00
2019-03-13T01:19:42.864Z,8.00
2019-03-13T01:20:42.869Z,7.50
2019-03-13T01:21:42.832Z,7.40
2019-03-13T01:22:42.820Z,6.60
2019-03-13T01:23:42.810Z,8.70
2019-03-13T01:24:42.821Z,4.00
2019-03-13T01:25:42.807Z,6.90
2019-03-13T01:26:42.777Z,4.80
2019-03-13T01:27:42.771Z,3.90
2019-03-13T01:28:42.754Z,3.80
2019-03-13T01:29:42.745Z,7.80
2019-03-13T01:30:42.766Z,5.10
2019-03-13T01:31:42.742Z,7.50
2019-03-13T01:32:42.708Z,8.30
2019-03-13T01:33:42.703Z,5.10
2019-03-13T01:34:42.692Z,5.50
2019-03-13T01:35:42.675Z,5.60
2019-03-13T01:36:42.699Z,4.50
2019-03-13T01:37:42.664Z,6.80
2019-03-13T01:38:42.655Z,7.00
2019-03-13T01:39:42.630Z,6.90
2019-03-13T01:40:42.621Z,8.40
2019-03-13T01:41:42.609Z,6.30
2019-03-13T01:42:42.653Z,3.50
2019-03-13T01:43:42.588Z,6.30
2019-03-13T01:44:42.589Z,6.10
2019-03-13T01:45:42.566Z,6.80
2019-03-13T01:46:42.551Z,7.00
2019-03-13T01:47:42.545Z,8.70
2019-03-13T01:48:42.597Z,8.00
2019-03-13T01:49:42.525Z,8.20
2019-03-13T01:50:42.513Z,7.00
2019-03-13T01:51:42.498Z,5.20
2019-03-13T01:52:42.490Z,8.60
2019-03-13T01:53:42.479Z,8.30
2019-03-13T01:54:42.496Z,8.80
2019-03-13T01:55:42.458Z,7.70
2019-03-13T01:56:42.445Z,5.00
2019-03-13T01:57:42.432Z,9.90
2019-03-13T01:58:42.420Z,6.60
2019-03-13T01:59:42.427Z,9.80
2019-03-13T02:00:42.414Z,7.00
2019-03-13T02:01:42.385Z,7.30
2019-03-13T02:02:42.378Z,8.50
2019-03-13T02:03:42.367Z,7.50
2019-03-13T02:04:42.356Z,9.30
2019-03-13T02:05:42.354Z,7.60
2019-03-13T02:06:42.365Z,7.80
2019-03-13T02:07:42.324Z,9.30
2019-03-13T02:08:42.310Z,8.00
2019-03-13T02:09:42.298Z,11.00
2019-03-13T02:10:42.316Z,10.60
2019-03-13T02:11:42.277Z,10.90
2019-03-13T02:12:42.369Z,7.70
2019-03-13T02:13:42.257Z,9.00
2019-03-13T02:14:42.245Z,12.60
2019-03-13T02:15:42.233Z,7.90
2019-03-13T02:16:42.231Z,10.10
2019-03-13T02:17:42.220Z,12.90
2019-03-13T02:18:42.221Z,9.30
2019-03-13T02:19:42.193Z,11.80
2019-03-13T02:20:42.177Z,8.90
2019-03-13T02:21:42.172Z,11.50
2019-03-13T02:22:42.177Z,12.70
2019-03-13T02:23:42.148Z,11.40
2019-03-13T02:24:42.158Z,10.80
2019-03-13T02:25:42.122Z,9.70
2019-03-13T02:26:42.112Z,7.60
2019-03-13T02:27:42.103Z,9.60
2019-03-13T02:28:42.107Z,13.80
2019-03-13T02:29:42.079Z,8.50
2019-03-13T02:30:42.109Z,8.50
2019-03-13T02:31:42.054Z,5.50
2019-03-13T02:32:42.045Z,10.90
2019-03-13T02:33:42.033Z,12.60
2019-03-13T02:34:42.041Z,9.60
2019-03-13T02:35:42.015Z,13.80
2019-03-13T02:36:42.029Z,13.90
2019-03-13T02:37:41.988Z,9.70
2019-03-13T02:38:41.982Z,12.90
2019-03-13T02:39:41.967Z,10.70
2019-03-13T02:40:41.971Z,9.60
2019-03-13T02:41:41.945Z,10.50
2019-03-13T02:42:41.970Z,10.10
2019-03-13T02:43:41.922Z,13.90
2019-03-13T02:44:41.915Z,10.80
2019-03-13T02:45:41.920Z,15.40
2019-03-13T02:46:41.891Z,7.50
2019-03-13T02:47:41.877Z,7.50
2019-03-13T02:48:41.902Z,7.60
2019-03-13T02:49:41.857Z,8.60
2019-03-13T02:50:41.849Z,12.70
2019-03-13T02:51:41.847Z,8.60
2019-03-13T02:52:41.824Z,7.90
2019-03-13T02:53:41.814Z,10.60
2019-03-13T02:54:41.835Z,9.30
2019-03-13T02:55:41.802Z,14.00
2019-03-13T02:56:41.797Z,8.60
2019-03-13T02:57:41.769Z,8.50
2019-03-13T02:58:41.756Z,7.40
2019-03-13T02:59:41.747Z,10.40
2019-03-13T03:00:41.765Z,8.00
2019-03-13T03:01:41.724Z,9.60
2019-03-13T03:02:41.733Z,9.20
2019-03-13T03:03:41.703Z,6.60
2019-03-13T03:04:41.689Z,7.90
2019-03-13T03:05:41.681Z,10.00
2019-03-13T03:06:41.691Z,12.90
2019-03-13T03:07:41.679Z,10.80
2019-03-13T03:08:41.645Z,12.10
2019-03-13T03:09:41.634Z,10.30
2019-03-13T03:10:41.625Z,6.20
2019-03-13T03:11:41.723Z,7.70
2019-03-13T03:12:41.641Z,7.30
2019-03-13T03:13:41.609Z,9.40
2019-03-13T03:14:41.603Z,11.20
2019-03-13T03:15:41.570Z,12.40
2019-03-13T03:16:41.559Z,9.60
2019-03-13T03:17:41.555Z,10.00
2019-03-13T03:18:41.565Z,8.60
2019-03-13T03:19:41.537Z,8.10
2019-03-13T03:20:41.534Z,14.10
2019-03-13T03:21:41.505Z,9.90
2019-03-13T03:22:41.497Z,9.00
2019-03-13T03:23:45.018Z,10.70
2019-03-13T03:24:41.504Z,11.30
2019-03-13T03:25:41.481Z,7.10
2019-03-13T03:26:41.449Z,12.20
2019-03-13T03:27:41.436Z,13.60
2019-03-13T03:28:41.428Z,5.00
2019-03-13T03:29:41.417Z,13.10
2019-03-13T03:30:41.444Z,10.30
2019-03-13T03:31:41.396Z,10.70
2019-03-13T03:32:41.381Z,16.20
2019-03-13T03:33:41.371Z,8.80
2019-03-13T03:34:41.361Z,11.60
2019-03-13T03:35:41.370Z,8.80
2019-03-13T03:36:41.385Z,10.30
2019-03-13T03:37:41.329Z,12.40
2019-03-13T03:38:41.317Z,8.40
2019-03-13T03:39:41.426Z,7.60
2019-03-13T03:40:41.302Z,6.20
2019-03-13T03:41:41.307Z,9.70
2019-03-13T03:42:41.303Z,12.80
2019-03-13T03:43:41.349Z,11.80
2019-03-13T03:44:41.254Z,10.10
2019-03-13T03:45:41.240Z,10.70
2019-03-13T03:46:41.229Z,14.70
2019-03-13T03:47:41.234Z,10.90
2019-03-13T03:48:41.227Z,14.00
2019-03-13T03:49:41.201Z,9.50
2019-03-13T03:50:41.331Z,16.20
2019-03-13T03:51:41.177Z,11.60
2019-03-13T03:52:41.178Z,13.10
2019-03-13T03:53:41.159Z,17.30
2019-03-13T03:54:41.180Z,13.00
2019-03-13T03:55:41.126Z,9.70
2019-03-13T03:56:41.123Z,11.90
2019-03-13T03:57:41.108Z,13.20
2019-03-13T03:58:41.116Z,11.90
2019-03-13T03:59:41.093Z,10.80
2019-03-13T04:00:41.120Z,8.60
2019-03-13T04:01:41.065Z,12.20
2019-03-13T04:02:41.050Z,9.80
2019-03-13T04:03:41.046Z,10.80
2019-03-13T04:04:41.040Z,18.10
2019-03-13T04:05:41.020Z,8.50
2019-03-13T04:06:41.037Z,11.80
2019-03-13T04:07:41.000Z,8.50
2019-03-13T04:08:40.991Z,9.50
2019-03-13T04:09:40.991Z,9.30
2019-03-13T04:10:40.965Z,10.80
2019-03-13T04:11:40.957Z,11.60
2019-03-13T04:12:40.992Z,12.10
2019-03-13T04:13:44.520Z,10.00
2019-03-13T04:14:40.920Z,8.20
2019-03-13T04:15:40.922Z,11.70
2019-03-13T04:16:40.899Z,13.50
2019-03-13T04:17:40.886Z,10.50
2019-03-13T04:18:40.901Z,11.30
2019-03-13T04:19:40.893Z,9.10
2019-03-13T04:20:40.859Z,10.10
2019-03-13T04:21:40.848Z,8.90
2019-03-13T04:22:40.834Z,10.10
2019-03-13T04:23:40.821Z,11.40
2019-03-13T04:24:40.850Z,9.20
2019-03-13T04:25:40.814Z,5.70
2019-03-13T04:26:40.789Z,13.90
2019-03-13T04:27:40.779Z,9.70
2019-03-13T04:28:40.770Z,8.40
2019-03-13T04:29:40.754Z,8.70
2019-03-13T04:30:40.785Z,16.50
2019-03-13T04:31:40.749Z,10.80
2019-03-13T04:32:40.723Z,7.00
2019-03-13T04:33:40.712Z,9.30
2019-03-13T04:34:40.700Z,9.40
2019-03-13T04:35:40.688Z,11.90
2019-03-13T04:36:40.738Z,10.00
2019-03-13T04:37:40.665Z,10.00
2019-03-13T04:38:40.653Z,10.10
2019-03-13T04:39:40.643Z,11.10
2019-03-13T04:40:40.634Z,8.50
2019-03-13T04:41:40.620Z,9.00
2019-03-13T04:42:40.666Z,12.90
2019-03-13T04:43:40.604Z,9.80
2019-03-13T04:44:40.604Z,15.60
2019-03-13T04:45:40.578Z,11.40
2019-03-13T04:46:40.567Z,15.00
2019-03-13T04:47:40.560Z,9.40
2019-03-13T04:48:40.572Z,13.90
2019-03-13T04:49:40.536Z,15.30
2019-03-13T04:50:40.544Z,8.00
2019-03-13T04:51:40.541Z,13.50
2019-03-13T04:52:40.501Z,12.10
2019-03-13T04:53:40.489Z,14.70
2019-03-13T04:54:40.495Z,11.00
2019-03-13T04:55:40.474Z,12.50
2019-03-13T04:56:40.468Z,14.10
2019-03-13T04:57:40.450Z,10.90
2019-03-13T04:58:40.434Z,10.30
2019-03-13T04:59:40.424Z,9.60
2019-03-13T05:00:40.444Z,7.30
2019-03-13T05:01:40.434Z,13.30
2019-03-13T05:02:40.391Z,11.80
2019-03-13T05:03:40.381Z,11.70
2019-03-13T05:04:40.374Z,10.90
2019-03-13T05:05:40.359Z,13.40
2019-03-13T05:06:40.383Z,11.00
2019-03-13T05:07:40.348Z,11.10
2019-03-13T05:08:45.235Z,11.60
2019-03-13T05:09:41.311Z,17.80
2019-03-13T05:10:40.307Z,10.10
2019-03-13T05:11:40.294Z,11.60
2019-03-13T05:12:40.368Z,12.80
2019-03-13T05:13:40.272Z,6.60
2019-03-13T05:14:40.289Z,13.40
2019-03-13T05:15:40.251Z,12.00
2019-03-13T05:16:40.241Z,7.90
2019-03-13T05:17:40.250Z,11.80
2019-03-13T05:18:40.226Z,15.70
2019-03-13T05:19:40.259Z,12.20
2019-03-13T05:20:40.271Z,13.70
2019-03-13T05:21:40.190Z,15.90
2019-03-13T05:22:40.176Z,14.80
2019-03-13T05:23:40.168Z,14.30
2019-03-13T05:24:40.154Z,16.30
2019-03-13T05:25:40.146Z,11.40
2019-03-13T05:26:40.156Z,12.20
2019-03-13T05:27:40.168Z,12.60
2019-03-13T05:28:40.140Z,11.20
2019-03-13T05:29:40.099Z,12.50
2019-03-13T05:30:40.105Z,13.70
2019-03-13T05:31:40.078Z,10.80
2019-03-13T05:32:40.090Z,16.20
2019-03-13T05:33:40.054Z,16.30
2019-03-13T05:34:40.050Z,13.10
2019-03-13T05:35:40.034Z,16.80
2019-03-13T05:36:40.084Z,23.00
2019-03-13T05:37:40.018Z,16.00
2019-03-13T05:38:40.108Z,13.20
2019-03-13T05:39:40.005Z,18.00
2019-03-13T05:40:39.980Z,16.90
2019-03-13T05:41:39.969Z,17.80
2019-03-13T05:42:39.954Z,11.80
2019-03-13T05:43:39.944Z,16.10
2019-03-13T05:44:39.990Z,10.80
2019-03-13T05:45:39.922Z,16.10
2019-03-13T05:46:39.913Z,12.70
2019-03-13T05:47:39.899Z,12.10
2019-03-13T05:48:39.926Z,10.60
2019-03-13T05:49:39.878Z,12.00
2019-03-13T05:50:39.913Z,16.90
2019-03-13T05:51:39.857Z,15.40
2019-03-13T05:52:39.850Z,15.60
2019-03-13T05:53:39.833Z,13.70
2019-03-13T05:54:39.839Z,13.30
2019-03-13T05:55:39.810Z,10.40
2019-03-13T05:56:40.944Z,13.50
2019-03-13T05:57:39.801Z,13.70
2019-03-13T05:58:39.779Z,16.30
2019-03-13T05:59:39.766Z,13.50
2019-03-13T06:00:39.776Z,10.70
2019-03-13T06:01:39.743Z,17.70
2019-03-13T06:02:39.734Z,17.00
2019-03-13T06:03:39.763Z,14.50
2019-03-13T06:04:39.714Z,16.90
2019-03-13T06:05:39.704Z,14.50
2019-03-13T06:06:39.718Z,15.80
2019-03-13T06:07:39.680Z,13.90
2019-03-13T06:08:39.679Z,16.10
2019-03-13T06:09:39.657Z,12.60
2019-03-13T06:10:39.679Z,18.50
2019-03-13T06:11:39.645Z,11.60
2019-03-13T06:12:39.643Z,11.20
2019-03-13T06:13:39.611Z,14.50
2019-03-13T06:14:39.632Z,17.30
2019-03-13T06:15:39.586Z,18.60
2019-03-13T06:16:39.580Z,16.30
2019-03-13T06:17:39.610Z,10.60
2019-03-13T06:18:39.560Z,17.20
2019-03-13T06:19:39.557Z,17.60
2019-03-13T06:20:39.581Z,18.40
2019-03-13T06:21:39.521Z,16.90
2019-03-13T06:22:39.512Z,15.20
2019-03-13T06:23:39.522Z,14.70
2019-03-13T06:24:39.488Z,14.50
2019-03-13T06:25:39.531Z,12.90
2019-03-13T06:26:39.465Z,15.90
2019-03-13T06:27:39.455Z,12.90
2019-03-13T06:28:39.446Z,12.90
2019-03-13T06:29:39.447Z,13.90
2019-03-13T06:30:39.423Z,9.90
2019-03-13T06:31:39.455Z,11.90
2019-03-13T06:32:39.400Z,18.20
2019-03-13T06:33:39.398Z,12.90
2019-03-13T06:34:39.412Z,14.00
2019-03-13T06:35:39.374Z,17.60
2019-03-13T06:36:39.384Z,11.80
2019-03-13T06:37:39.346Z,12.80
2019-03-13T06:38:39.338Z,10.90
2019-03-13T06:39:39.323Z,10.30
2019-03-13T06:40:39.351Z,16.00
2019-03-13T06:41:39.305Z,12.10
2019-03-13T06:42:39.864Z,13.40
2019-03-13T06:43:39.290Z,11.30
2019-03-13T06:44:39.274Z,11.50
2019-03-13T06:45:39.263Z,19.50
2019-03-13T06:46:39.262Z,14.80
2019-03-13T06:47:39.274Z,15.80
2019-03-13T06:48:39.226Z,17.90
2019-03-13T06:49:39.229Z,19.10
2019-03-13T06:50:39.202Z,10.50
2019-03-13T06:51:39.190Z,16.80
2019-03-13T06:52:39.184Z,15.10
2019-03-13T06:53:39.204Z,9.10
2019-03-13T06:54:39.182Z,14.40
2019-03-13T06:55:39.155Z,11.80
2019-03-13T06:56:39.138Z,14.20
2019-03-13T06:57:39.124Z,17.20
2019-03-13T06:58:39.115Z,17.00
2019-03-13T06:59:39.143Z,15.80
2019-03-13T07:00:39.134Z,13.20
2019-03-13T07:01:39.083Z,17.10
2019-03-13T07:02:39.068Z,14.70
2019-03-13T07:03:39.061Z,15.00
2019-03-13T07:04:39.054Z,13.60
2019-03-13T07:05:39.066Z,11.80
2019-03-13T07:06:39.043Z,15.90
2019-03-13T07:07:39.013Z,13.10
2019-03-13T07:08:39.006Z,20.10
2019-03-13T07:09:39.716Z,17.50
2019-03-13T07:10:38.985Z,13.20
2019-03-13T07:11:39.009Z,14.00
2019-03-13T07:12:38.965Z,14.60
2019-03-13T07:13:38.947Z,14.40
2019-03-13T07:14:38.939Z,16.10
2019-03-13T07:15:38.948Z,12.30
2019-03-13T07:16:38.916Z,9.30
2019-03-13T07:17:38.955Z,15.10
2019-03-13T07:18:38.900Z,10.20
2019-03-13T07:19:38.889Z,16.20
2019-03-13T07:20:38.878Z,16.00
2019-03-13T07:21:38.898Z,12.40
2019-03-13T07:22:38.860Z,13.80
2019-03-13T07:23:38.837Z,12.00
2019-03-13T07:24:38.824Z,18.20
2019-03-13T07:25:38.884Z,23.50
2019-03-13T07:26:38.820Z,14.60
2019-03-13T07:27:38.833Z,15.90
2019-03-13T07:28:38.785Z,16.20
2019-03-13T07:29:38.792Z,15.80
2019-03-13T07:30:38.760Z,13.30
2019-03-13T07:31:38.772Z,17.70
2019-03-13T07:32:38.805Z,18.30
2019-03-13T07:33:38.730Z,14.20
2019-03-13T07:34:38.717Z,13.40
2019-03-13T07:35:38.712Z,11.90
2019-03-13T07:36:38.699Z,15.50
2019-03-13T07:37:38.699Z,10.10
2019-03-13T07:38:38.729Z,15.80
2019-03-13T07:39:38.664Z,13.90
2019-03-13T07:40:38.655Z,18.20
2019-03-13T07:41:38.643Z,19.50
2019-03-13T07:42:38.635Z,22.90
2019-03-13T07:43:38.656Z,26.00
2019-03-13T07:44:38.621Z,18.70
2019-03-13T07:45:38.598Z,25.00
2019-03-13T07:46:38.587Z,20.50
2019-03-13T07:47:38.577Z,15.20
2019-03-13T07:48:38.598Z,14.30
2019-03-13T07:49:38.614Z,17.50
2019-03-13T07:50:38.541Z,19.60
2019-03-13T07:51:38.532Z,13.80
2019-03-13T07:52:38.524Z,13.60
2019-03-13T07:53:38.512Z,11.50
2019-03-13T07:54:38.503Z,12.70
2019-03-13T07:55:38.556Z,16.20
2019-03-13T07:56:38.480Z,14.50
2019-03-13T07:57:38.466Z,18.30
2019-03-13T07:58:38.457Z,17.10
2019-03-13T07:59:38.444Z,17.70
2019-03-13T08:00:38.453Z,14.20
2019-03-13T08:01:38.463Z,12.00
2019-03-13T08:02:38.408Z,16.90
2019-03-13T08:03:38.431Z,13.40
2019-03-13T08:04:38.393Z,14.00
2019-03-13T08:05:38.382Z,17.20
2019-03-13T08:06:38.382Z,19.70
2019-03-13T08:07:38.403Z,11.50
2019-03-13T08:08:38.346Z,11.40
2019-03-13T08:09:38.334Z,15.30
2019-03-13T08:10:38.422Z,14.20
2019-03-13T08:11:38.338Z,9.50
2019-03-13T08:12:38.326Z,16.30
2019-03-13T08:13:38.300Z,13.80
2019-03-13T08:14:38.331Z,15.70
2019-03-13T08:15:38.272Z,15.50
2019-03-13T08:16:38.259Z,13.50
2019-03-13T08:17:38.266Z,18.40
2019-03-13T08:18:38.240Z,12.60
2019-03-13T08:19:38.229Z,12.40
2019-03-13T08:20:38.282Z,16.90
2019-03-13T08:21:38.204Z,11.50
2019-03-13T08:22:38.194Z,13.20
2019-03-13T08:23:38.207Z,16.20
2019-03-13T08:24:38.174Z,14.50
2019-03-13T08:25:38.157Z,14.90
2019-03-13T08:26:38.193Z,10.50
2019-03-13T08:27:38.137Z,12.80
2019-03-13T08:28:38.125Z,17.60
2019-03-13T08:29:38.135Z,24.20
2019-03-13T08:30:38.105Z,14.80
2019-03-13T08:31:38.094Z,10.90
2019-03-13T08:32:38.122Z,11.70
2019-03-13T08:33:38.069Z,13.60
2019-03-13T08:34:38.087Z,13.30
2019-03-13T08:35:38.050Z,8.40
2019-03-13T08:36:40.646Z,14.10
2019-03-13T08:37:38.029Z,17.80
2019-03-13T08:38:38.058Z,21.00
2019-03-13T08:39:38.006Z,13.80
2019-03-13T08:40:38.012Z,15.70
2019-03-13T08:41:37.982Z,16.70
2019-03-13T08:42:37.987Z,11.40
2019-03-13T08:43:37.964Z,10.90
2019-03-13T08:44:37.995Z,10.10
2019-03-13T08:45:37.960Z,13.60
2019-03-13T08:46:37.931Z,11.90
2019-03-13T08:47:37.915Z,11.00
2019-03-13T08:48:37.916Z,6.80
2019-03-13T08:49:37.898Z,15.70
2019-03-13T08:50:37.888Z,11.80
2019-03-13T08:51:37.927Z,14.80
2019-03-13T08:52:37.866Z,12.50
2019-03-13T08:53:37.859Z,11.20
2019-03-13T08:54:37.844Z,16.90
2019-03-13T08:55:37.833Z,14.90
2019-03-13T08:56:37.824Z,16.30
2019-03-13T08:57:37.823Z,16.20
2019-03-13T08:58:37.801Z,12.40
2019-03-13T08:59:37.789Z,18.30
2019-03-13T09:00:37.808Z,11.70
2019-03-13T09:01:37.767Z,18.10
2019-03-13T09:02:37.774Z,13.00
2019-03-13T09:03:37.747Z,12.90
2019-03-13T09:04:37.734Z,12.50
2019-03-13T09:05:37.722Z,10.90
2019-03-13T09:06:37.760Z,10.80
2019-03-13T09:07:37.701Z,11.70
2019-03-13T09:08:37.698Z,14.90
2019-03-13T09:09:37.677Z,8.80
2019-03-13T09:10:37.668Z,12.20
2019-03-13T09:11:37.656Z,13.50
2019-03-13T09:12:37.645Z,10.50
2019-03-13T09:13:37.700Z,14.80
2019-03-13T09:14:37.622Z,17.50
2019-03-13T09:15:37.610Z,12.90
2019-03-13T09:16:37.649Z,12.30
2019-03-13T09:17:37.595Z,8.40
2019-03-13T09:18:37.583Z,14.90
2019-03-13T09:19:37.588Z,11.10
2019-03-13T09:20:37.589Z,12.30
2019-03-13T09:21:37.552Z,14.60
2019-03-13T09:22:37.549Z,10.50
2019-03-13T09:23:37.524Z,13.20
2019-03-13T09:24:37.512Z,12.60
2019-03-13T09:25:37.525Z,8.80
2019-03-13T09:26:37.556Z,9.40
2019-03-13T09:27:37.486Z,11.50
2019-03-13T09:28:37.490Z,5.80
2019-03-13T09:29:37.646Z,13.50
2019-03-13T09:30:37.470Z,13.40
2019-03-13T09:31:37.444Z,15.00
2019-03-13T09:32:37.428Z,15.70
2019-03-13T09:33:37.425Z,15.30
2019-03-13T09:34:37.436Z,10.90
2019-03-13T09:35:37.396Z,12.10
2019-03-13T09:36:37.403Z,7.50
2019-03-13T09:37:37.372Z,9.60
2019-03-13T09:38:38.418Z,14.20
2019-03-13T09:39:37.352Z,13.20
2019-03-13T09:40:37.343Z,12.80
2019-03-13T09:41:37.334Z,7.10
2019-03-13T09:42:37.386Z,9.40
2019-03-13T09:43:37.319Z,10.60
2019-03-13T09:44:37.312Z,7.90
2019-03-13T09:45:37.286Z,11.40
2019-03-13T09:46:37.283Z,10.30
2019-03-13T09:47:37.262Z,7.90
2019-03-13T09:48:37.307Z,10.30
2019-03-13T09:49:37.270Z,11.00
2019-03-13T09:50:37.231Z,6.10
2019-03-13T09:51:37.224Z,10.00
2019-03-13T09:52:37.208Z,8.90
2019-03-13T09:53:37.206Z,9.80
2019-03-13T09:54:37.189Z,5.40
2019-03-13T09:55:37.245Z,10.60
2019-03-13T09:56:37.167Z,9.70
2019-03-13T09:57:37.157Z,4.90
2019-03-13T09:58:37.142Z,13.60
2019-03-13T09:59:43.208Z,7.10
2019-03-13T10:00:38.148Z,8.60
2019-03-13T10:01:37.120Z,11.30
2019-03-13T10:02:37.117Z,12.10
2019-03-13T10:03:37.091Z,6.90
2019-03-13T10:04:37.079Z,7.60
2019-03-13T10:05:37.065Z,7.60
2019-03-13T10:06:37.080Z,6.70
2019-03-13T10:07:37.048Z,8.80
2019-03-13T10:08:37.049Z,6.40
2019-03-13T10:09:37.022Z,7.30
2019-03-13T10:10:37.048Z,10.50
2019-03-13T10:11:37.004Z,14.00
2019-03-13T10:12:37.002Z,7.60
2019-03-13T10:13:36.982Z,8.70
2019-03-13T10:14:36.971Z,8.40
2019-03-13T10:15:36.965Z,10.90
2019-03-13T10:16:36.952Z,10.70
2019-03-13T10:17:37.053Z,11.70
2019-03-13T10:18:36.923Z,6.00
2019-03-13T10:19:36.934Z,6.60
2019-03-13T10:20:36.911Z,9.60
2019-03-13T10:21:36.896Z,5.00
2019-03-13T10:22:36.894Z,7.90
2019-03-13T10:23:36.920Z,9.00
2019-03-13T10:24:36.858Z,8.80
2019-03-13T10:25:36.875Z,8.40
2019-03-13T10:26:36.838Z,11.40
2019-03-13T10:27:36.828Z,14.10
2019-03-13T10:28:36.818Z,10.80
2019-03-13T10:29:36.851Z,9.20
2019-03-13T10:30:36.804Z,11.00
2019-03-13T10:31:36.793Z,9.70
2019-03-13T10:32:36.773Z,12.30
2019-03-13T10:33:36.783Z,10.30
2019-03-13T10:34:36.754Z,10.10
2019-03-13T10:35:36.782Z,11.90
2019-03-13T10:36:36.740Z,11.70
2019-03-13T10:37:36.715Z,10.60
2019-03-13T10:38:36.722Z,16.30
2019-03-13T10:39:36.718Z,10.50
2019-03-13T10:40:36.682Z,18.30
2019-03-13T10:41:36.675Z,22.90
2019-03-13T10:42:36.723Z,15.50
2019-03-13T10:43:36.658Z,15.90
2019-03-13T10:44:36.656Z,10.50
2019-03-13T10:45:36.653Z,14.20
2019-03-13T10:46:36.620Z,11.40
2019-03-13T10:47:36.621Z,11.30
2019-03-13T10:48:36.646Z,10.40
2019-03-13T10:49:36.587Z,9.90
2019-03-13T10:50:36.581Z,10.40
2019-03-13T10:51:36.564Z,9.20
2019-03-13T10:52:36.554Z,12.60
2019-03-13T10:53:36.555Z,11.90
2019-03-13T10:54:36.594Z,9.00
2019-03-13T10:55:36.618Z,12.90
2019-03-13T10:56:36.545Z,7.80
2019-03-13T10:57:36.500Z,12.30
2019-03-13T10:58:36.487Z,12.70
2019-03-13T10:59:36.499Z,8.20
2019-03-13T11:00:36.482Z,12.20
2019-03-13T11:01:36.521Z,14.20
2019-03-13T11:02:36.449Z,13.20
2019-03-13T11:03:36.436Z,11.90
2019-03-13T11:04:36.423Z,12.40
2019-03-13T11:05:36.452Z,17.50
2019-03-13T11:06:36.403Z,11.90
2019-03-13T11:07:36.454Z,16.90
2019-03-13T11:08:36.376Z,15.80
2019-03-13T11:09:36.373Z,9.30
2019-03-13T11:10:36.399Z,16.80
2019-03-13T11:11:36.364Z,13.90
2019-03-13T11:12:36.334Z,10.80
2019-03-13T11:13:36.375Z,11.50
2019-03-13T11:14:36.308Z,15.50
2019-03-13T11:15:36.300Z,12.00
2019-03-13T11:16:36.289Z,9.70
2019-03-13T11:17:36.308Z,10.50
2019-03-13T11:18:36.306Z,10.90
2019-03-13T11:19:36.260Z,10.70
2019-03-13T11:20:36.246Z,11.50
2019-03-13T11:21:36.236Z,14.80
2019-03-13T11:22:36.223Z,12.30
2019-03-13T11:23:36.223Z,14.50
2019-03-13T11:24:36.226Z,9.20
2019-03-13T11:25:36.189Z,12.90
2019-03-13T11:26:36.179Z,10.30
2019-03-13T11:27:36.182Z,7.60
2019-03-13T11:28:36.169Z,13.70
2019-03-13T11:29:36.153Z,14.40
2019-03-13T11:30:36.170Z,15.50
2019-03-13T11:31:36.124Z,13.70
2019-03-13T11:32:36.112Z,13.80
2019-03-13T11:33:36.128Z,10.50
2019-03-13T11:34:36.104Z,13.80
2019-03-13T11:35:36.082Z,12.10
2019-03-13T11:36:36.092Z,14.80
2019-03-13T11:37:36.057Z,12.90
2019-03-13T11:38:36.047Z,14.30
2019-03-13T11:39:36.050Z,14.60
2019-03-13T11:40:36.036Z,14.10
2019-03-13T11:41:36.015Z,11.10
2019-03-13T11:42:36.039Z,17.30
2019-03-13T11:43:35.994Z,11.90
2019-03-13T11:44:36.002Z,14.10
2019-03-13T11:45:35.969Z,16.60
2019-03-13T11:46:35.962Z,12.80
2019-03-13T11:47:42.240Z,8.20
2019-03-13T11:48:36.966Z,8.20
2019-03-13T11:49:35.931Z,10.70
2019-03-13T11:50:35.929Z,4.40
2019-03-13T11:51:35.903Z,7.10
2019-03-13T11:52:35.895Z,6.80
2019-03-13T11:53:35.888Z,12.00
2019-03-13T11:54:35.888Z,9.60
2019-03-13T11:55:35.881Z,12.60
2019-03-13T11:56:35.849Z,14.70
2019-03-13T11:57:35.838Z,10.30
2019-03-13T11:58:35.829Z,11.70
2019-03-13T11:59:35.818Z,7.60
2019-03-13T12:00:35.833Z,6.20
2019-03-13T12:01:45.196Z,7.20
2019-03-13T12:02:36.786Z,14.40
2019-03-13T12:03:35.773Z,13.10
2019-03-13T12:04:35.765Z,19.50
2019-03-13T12:05:35.756Z,19.20
2019-03-13T12:06:35.792Z,16.30
2019-03-13T12:07:35.748Z,19.50
2019-03-13T12:08:35.717Z,13.90
2019-03-13T12:09:35.716Z,7.70
2019-03-13T12:10:35.699Z,10.90
2019-03-13T12:11:35.685Z,9.70
2019-03-13T12:12:35.711Z,11.10
2019-03-13T12:13:35.677Z,8.60
2019-03-13T12:14:35.653Z,11.90
2019-03-13T12:15:35.642Z,12.20
2019-03-13T12:16:35.630Z,15.40
2019-03-13T12:17:35.620Z,18.40
2019-03-13T12:18:35.652Z,12.80
2019-03-13T12:19:35.599Z,15.50
2019-03-13T12:20:35.589Z,12.70
2019-03-13T12:21:35.575Z,14.40
2019-03-13T12:22:35.570Z,13.40
2019-03-13T12:23:35.557Z,15.90
2019-03-13T12:24:35.561Z,13.20
2019-03-13T12:25:35.580Z,9.00
2019-03-13T12:26:35.528Z,11.00
2019-03-13T12:27:35.513Z,11.50
2019-03-13T12:28:35.499Z,13.00
2019-03-13T12:29:35.489Z,9.20
2019-03-13T12:30:35.493Z,6.30
2019-03-13T12:31:35.516Z,13.20
2019-03-13T12:32:35.454Z,10.60
2019-03-13T12:33:35.579Z,10.20
2019-03-13T12:34:35.434Z,9.20
2019-03-13T12:35:35.445Z,8.30
2019-03-13T12:36:35.411Z,4.20
2019-03-13T12:37:35.430Z,5.40
2019-03-13T12:38:35.395Z,6.80
2019-03-13T12:39:35.395Z,7.00
2019-03-13T12:40:35.370Z,8.40
2019-03-13T12:41:35.368Z,4.10
2019-03-13T12:42:35.348Z,4.70
2019-03-13T12:43:35.375Z,5.00
2019-03-13T12:44:35.326Z,6.00
2019-03-13T12:45:35.311Z,5.70
2019-03-13T12:46:35.316Z,6.80
2019-03-13T12:47:35.297Z,5.30
2019-03-13T12:48:35.281Z,4.00
2019-03-13T12:49:35.296Z,6.20
2019-03-13T12:50:35.265Z,6.30
2019-03-13T12:51:35.249Z,7.90
2019-03-13T12:52:35.250Z,6.30
2019-03-13T12:53:35.226Z,6.50
2019-03-13T12:54:35.215Z,5.60
2019-03-13T12:55:35.248Z,6.00
2019-03-13T12:56:35.193Z,5.80
2019-03-13T12:57:35.193Z,3.80
2019-03-13T12:58:35.184Z,6.60
2019-03-13T12:59:35.160Z,4.90
2019-03-13T13:00:35.151Z,6.10
2019-03-13T13:01:35.185Z,4.70
2019-03-13T13:02:35.128Z,3.50